createdAt,value
2023-04-02T00:00:51.511Z,10.10
2023-04-02T00:01:51.627Z,10.14
2023-04-02T00:02:51.597Z,10.03
2023-04-02T00:03:51.584Z,10.15
2023-04-02T00:04:51.606Z,10.18
2023-04-02T00:05:51.706Z,10.10
2023-04-02T00:06:51.655Z,10.14
2023-04-02T00:07:51.677Z,10.17
2023-04-02T00:08:51.707Z,10.13
2023-04-02T00:09:51.734Z,10.18
2023-04-02T00:10:51.774Z,10.18
2023-04-02T00:11:51.784Z,10.17
2023-04-02T00:12:51.813Z,10.13
2023-04-02T00:13:51.864Z,10.11
2023-04-02T00:14:51.865Z,10.08
2023-04-02T00:15:51.893Z,9.99
2023-04-02T00:16:52.025Z,10.08
2023-04-02T00:17:51.961Z,10.11
2023-04-02T00:18:51.969Z,10.11
2023-04-02T00:19:51.997Z,10.10
2023-04-02T00:20:52.022Z,10.20
2023-04-02T00:21:52.046Z,10.17
2023-04-02T00:22:52.076Z,10.17
2023-04-02T00:23:52.098Z,10.15
2023-04-02T00:24:52.125Z,10.14
2023-04-02T00:25:52.154Z,10.20
2023-04-02T00:26:52.183Z,10.13
2023-04-02T00:27:52.216Z,10.11
2023-04-02T00:28:52.242Z,10.15
2023-04-02T00:29:52.295Z,10.11
2023-04-02T00:30:52.284Z,10.08
2023-04-02T00:31:52.336Z,10.13
2023-04-02T00:32:52.386Z,10.10
2023-04-02T00:33:52.359Z,10.13
2023-04-02T00:34:52.407Z,10.18
2023-04-02T00:35:52.433Z,10.10
2023-04-02T00:36:52.474Z,10.05
2023-04-02T00:37:52.464Z,10.14
2023-04-02T00:38:52.493Z,10.17
2023-04-02T00:39:52.516Z,10.03
2023-04-02T00:40:52.540Z,10.08
2023-04-02T00:41:52.566Z,10.13
2023-04-02T00:42:52.596Z,10.11
2023-04-02T00:43:52.622Z,10.15
2023-04-02T00:44:52.650Z,10.18
2023-04-02T00:45:52.749Z,10.21
2023-04-02T00:46:52.698Z,10.14
2023-04-02T00:47:52.807Z,10.18
2023-04-02T00:48:52.754Z,10.20
2023-04-02T00:49:52.777Z,10.15
2023-04-02T00:50:53.013Z,10.13
2023-04-02T00:51:52.984Z,10.13
2023-04-02T00:52:52.867Z,10.18
2023-04-02T00:53:53.081Z,10.20
2023-04-02T00:54:53.067Z,10.26
2023-04-02T00:55:52.937Z,10.15
2023-04-02T00:56:52.995Z,10.20
2023-04-02T00:57:52.987Z,10.21
2023-04-02T00:58:53.065Z,10.31
2023-04-02T00:59:53.061Z,10.26
2023-04-02T01:00:53.067Z,10.32
2023-04-02T01:01:53.215Z,10.29
2023-04-02T01:02:53.186Z,10.17
2023-04-02T01:03:53.166Z,10.17
2023-04-02T01:04:53.169Z,10.23
2023-04-02T01:05:53.193Z,10.18
2023-04-02T01:06:53.223Z,10.31
2023-04-02T01:07:53.244Z,10.26
2023-04-02T01:08:53.273Z,10.25
2023-04-02T01:09:53.305Z,10.18
2023-04-02T01:10:53.327Z,10.29
2023-04-02T01:11:53.377Z,10.18
2023-04-02T01:12:53.375Z,10.20
2023-04-02T01:13:53.404Z,10.17
2023-04-02T01:14:53.439Z,10.15
2023-04-02T01:15:53.484Z,10.14
2023-04-02T01:16:53.481Z,10.10
2023-04-02T01:17:53.597Z,10.07
2023-04-02T01:18:53.546Z,10.13
2023-04-02T01:19:53.568Z,10.17
2023-04-02T01:20:53.591Z,10.10
2023-04-02T01:21:53.608Z,10.07
2023-04-02T01:22:53.636Z,10.11
2023-04-02T01:23:53.667Z,10.10
2023-04-02T01:24:53.688Z,10.14
2023-04-02T01:25:53.715Z,10.08
2023-04-02T01:26:53.757Z,10.05
2023-04-02T01:27:53.764Z,9.98
2023-04-02T01:28:53.795Z,9.85
2023-04-02T01:29:53.828Z,9.84
2023-04-02T01:30:53.847Z,9.72
2023-04-02T01:31:53.896Z,9.66
2023-04-02T01:32:53.918Z,9.60
2023-04-02T01:33:53.952Z,9.59
2023-04-02T01:34:53.949Z,9.62
2023-04-02T01:35:53.992Z,9.57
2023-04-02T01:36:54.001Z,9.64
2023-04-02T01:37:54.024Z,9.62
2023-04-02T01:38:54.050Z,9.50
2023-04-02T01:39:54.076Z,9.48
2023-04-02T01:40:54.103Z,9.44
2023-04-02T01:41:54.128Z,9.39
2023-04-02T01:42:54.152Z,9.42
2023-04-02T01:43:54.180Z,9.37
2023-04-02T01:44:54.208Z,9.37
2023-04-02T01:45:54.230Z,9.42
2023-04-02T01:46:54.293Z,9.34
2023-04-02T01:47:54.287Z,9.32
2023-04-02T01:48:54.304Z,9.32
2023-04-02T01:49:54.352Z,9.30
2023-04-02T01:50:54.355Z,9.29
2023-04-02T01:51:54.379Z,9.37
2023-04-02T01:52:54.415Z,9.23
2023-04-02T01:53:54.430Z,9.24
2023-04-02T01:54:54.459Z,9.29
2023-04-02T01:55:54.480Z,9.24
2023-04-02T01:56:54.515Z,9.23
2023-04-02T01:57:54.539Z,9.21
2023-04-02T01:58:54.560Z,9.12
2023-04-02T01:59:54.589Z,9.11
2023-04-02T02:00:54.653Z,9.11
2023-04-02T02:01:54.649Z,9.00
2023-04-02T02:02:54.692Z,9.09
2023-04-02T02:03:54.688Z,9.05
2023-04-02T02:04:54.710Z,9.04
2023-04-02T02:05:54.768Z,9.01
2023-04-02T02:06:54.761Z,8.94
2023-04-02T02:07:54.786Z,8.89
2023-04-02T02:08:54.848Z,8.83
2023-04-02T02:09:54.866Z,8.94
2023-04-02T02:10:54.866Z,8.85
2023-04-02T02:11:54.899Z,8.82
2023-04-02T02:12:54.917Z,8.89
2023-04-02T02:13:54.941Z,8.86
2023-04-02T02:14:54.968Z,8.94
2023-04-02T02:15:55.042Z,8.89
2023-04-02T02:16:55.019Z,8.85
2023-04-02T02:17:55.103Z,8.83
2023-04-02T02:18:55.077Z,8.80
2023-04-02T02:19:55.101Z,8.80
2023-04-02T02:20:55.122Z,8.83
2023-04-02T02:21:55.169Z,8.74
2023-04-02T02:22:55.171Z,8.85
2023-04-02T02:23:55.196Z,8.79
2023-04-02T02:24:55.224Z,8.76
2023-04-02T02:25:55.246Z,8.69
2023-04-02T02:26:55.273Z,8.76
2023-04-02T02:27:55.295Z,8.76
2023-04-02T02:28:55.329Z,8.77
2023-04-02T02:29:55.349Z,8.72
2023-04-02T02:30:55.382Z,8.77
2023-04-02T02:31:55.465Z,8.69
2023-04-02T02:32:55.488Z,8.71
2023-04-02T02:33:55.447Z,8.77
2023-04-02T02:34:55.475Z,8.69
2023-04-02T02:35:55.518Z,8.67
2023-04-02T02:36:55.524Z,8.64
2023-04-02T02:37:55.570Z,8.74
2023-04-02T02:38:55.578Z,8.61
2023-04-02T02:39:55.612Z,8.64
2023-04-02T02:40:55.628Z,8.58
2023-04-02T02:41:55.658Z,8.62
2023-04-02T02:42:55.678Z,8.71
2023-04-02T02:43:55.698Z,8.67
2023-04-02T02:44:55.727Z,8.62
2023-04-02T02:45:55.771Z,8.60
2023-04-02T02:46:55.780Z,8.53
2023-04-02T02:47:55.809Z,8.49
2023-04-02T02:48:55.838Z,8.61
2023-04-02T02:49:56.056Z,8.52
2023-04-02T02:50:55.878Z,8.54
2023-04-02T02:51:55.899Z,8.50
2023-04-02T02:52:55.932Z,8.47
2023-04-02T02:53:55.980Z,8.53
2023-04-02T02:54:55.981Z,8.50
2023-04-02T02:55:55.996Z,8.49
2023-04-02T02:56:56.038Z,8.49
2023-04-02T02:57:56.051Z,8.49
2023-04-02T02:58:56.080Z,8.40
2023-04-02T02:59:56.097Z,8.44
2023-04-02T03:00:56.231Z,8.43
2023-04-02T03:01:56.150Z,8.44
2023-04-02T03:02:56.363Z,8.50
2023-04-02T03:03:56.350Z,8.46
2023-04-02T03:04:56.227Z,8.42
2023-04-02T03:05:56.248Z,8.49
2023-04-02T03:06:56.274Z,8.46
2023-04-02T03:07:56.302Z,8.47
2023-04-02T03:08:56.323Z,8.52
2023-04-02T03:09:56.367Z,8.47
2023-04-02T03:10:56.383Z,8.42
2023-04-02T03:11:56.397Z,8.50
2023-04-02T03:12:56.421Z,8.40
2023-04-02T03:13:56.448Z,8.46
2023-04-02T03:14:56.475Z,8.39
2023-04-02T03:15:56.546Z,8.28
2023-04-02T03:16:56.534Z,8.28
2023-04-02T03:17:56.585Z,8.28
2023-04-02T03:18:56.579Z,8.25
2023-04-02T03:19:56.605Z,8.16
2023-04-02T03:20:56.639Z,8.21
2023-04-02T03:21:56.649Z,8.21
2023-04-02T03:22:56.673Z,8.11
2023-04-02T03:23:56.699Z,8.25
2023-04-02T03:24:56.737Z,8.16
2023-04-02T03:25:56.773Z,8.26
2023-04-02T03:26:56.777Z,8.28
2023-04-02T03:27:56.800Z,8.19
2023-04-02T03:28:56.841Z,8.19
2023-04-02T03:29:56.851Z,8.19
2023-04-02T03:30:56.905Z,8.17
2023-04-02T03:31:56.899Z,8.21
2023-04-02T03:32:56.960Z,8.14
2023-04-02T03:33:56.964Z,8.17
2023-04-02T03:34:56.978Z,8.17
2023-04-02T03:35:57.047Z,8.11
2023-04-02T03:36:57.026Z,8.16
2023-04-02T03:37:57.069Z,8.13
2023-04-02T03:38:57.076Z,8.01
2023-04-02T03:39:57.105Z,8.03
2023-04-02T03:40:57.131Z,7.98
2023-04-02T03:41:57.171Z,8.01
2023-04-02T03:42:57.181Z,7.93
2023-04-02T03:43:57.201Z,8.01
2023-04-02T03:44:57.234Z,7.98
2023-04-02T03:45:57.254Z,7.91
2023-04-02T03:46:57.309Z,7.93
2023-04-02T03:47:57.326Z,7.92
2023-04-02T03:48:57.338Z,7.88
2023-04-02T03:49:57.354Z,7.83
2023-04-02T03:50:57.378Z,7.88
2023-04-02T03:51:57.401Z,7.88
2023-04-02T03:52:57.427Z,7.89
2023-04-02T03:53:57.469Z,7.80
2023-04-02T03:54:57.483Z,7.89
2023-04-02T03:55:57.513Z,7.88
2023-04-02T03:56:57.577Z,7.75
2023-04-02T03:57:57.585Z,7.78
2023-04-02T03:58:57.580Z,7.85
2023-04-02T03:59:57.634Z,7.88
2023-04-02T04:00:57.625Z,7.85
2023-04-02T04:01:57.727Z,7.88
2023-04-02T04:02:57.744Z,7.80
2023-04-02T04:03:57.780Z,7.85
2023-04-02T04:04:57.724Z,7.82
2023-04-02T04:05:57.750Z,7.88
2023-04-02T04:06:57.777Z,7.86
2023-04-02T04:07:57.800Z,7.91
2023-04-02T04:08:57.823Z,7.82
2023-04-02T04:09:57.855Z,7.83
2023-04-02T04:10:57.901Z,7.80
2023-04-02T04:11:57.907Z,7.78
2023-04-02T04:12:57.924Z,7.83
2023-04-02T04:13:57.974Z,7.73
2023-04-02T04:14:57.988Z,7.77
2023-04-02T04:15:57.999Z,7.74
2023-04-02T04:16:58.159Z,7.73
2023-04-02T04:17:58.098Z,7.73
2023-04-02T04:18:58.073Z,7.68
2023-04-02T04:19:58.097Z,7.71
2023-04-02T04:20:58.130Z,7.75
2023-04-02T04:21:58.160Z,7.71
2023-04-02T04:22:58.176Z,7.70
2023-04-02T04:23:58.197Z,7.70
2023-04-02T04:24:58.218Z,7.75
2023-04-02T04:25:58.246Z,7.67
2023-04-02T04:26:58.270Z,7.70
2023-04-02T04:27:58.297Z,7.67
2023-04-02T04:28:58.322Z,7.59
2023-04-02T04:29:58.366Z,7.68
2023-04-02T04:30:58.369Z,7.55
2023-04-02T04:31:58.414Z,7.68
2023-04-02T04:32:58.836Z,7.63
2023-04-02T04:33:58.453Z,7.55
2023-04-02T04:34:58.478Z,7.55
2023-04-02T04:35:58.600Z,7.68
2023-04-02T04:36:58.516Z,7.59
2023-04-02T04:37:58.555Z,7.56
2023-04-02T04:38:58.567Z,7.54
2023-04-02T04:39:58.594Z,7.58
2023-04-02T04:40:58.615Z,7.54
2023-04-02T04:41:58.642Z,7.56
2023-04-02T04:42:58.668Z,7.59
2023-04-02T04:43:58.689Z,7.59
2023-04-02T04:44:58.720Z,7.58
2023-04-02T04:45:58.799Z,7.58
2023-04-02T04:46:58.766Z,7.59
2023-04-02T04:47:58.841Z,7.47
2023-04-02T04:48:58.823Z,7.52
2023-04-02T04:49:58.842Z,7.48
2023-04-02T04:50:58.861Z,7.51
2023-04-02T04:51:58.888Z,7.48
2023-04-02T04:52:58.909Z,7.36
2023-04-02T04:53:58.936Z,7.56
2023-04-02T04:54:58.961Z,7.47
2023-04-02T04:56:06.076Z,7.48
2023-04-02T04:56:59.063Z,7.45
2023-04-02T04:57:59.038Z,7.49
2023-04-02T04:58:59.061Z,7.41
2023-04-02T04:59:59.086Z,7.41
2023-04-02T05:00:59.107Z,7.48
2023-04-02T05:01:59.155Z,7.44
2023-04-02T05:02:59.211Z,7.40
2023-04-02T05:03:59.181Z,7.47
2023-04-02T05:04:59.288Z,7.47
2023-04-02T05:05:59.231Z,7.39
2023-04-02T05:06:59.252Z,7.41
2023-04-02T05:08:00.066Z,7.41
2023-04-02T05:08:59.300Z,7.45
2023-04-02T05:09:59.326Z,7.44
2023-04-02T05:10:59.349Z,7.45
2023-04-02T05:11:59.396Z,7.44
2023-04-02T05:12:59.401Z,7.48
2023-04-02T05:13:59.422Z,7.41
2023-04-02T05:14:59.446Z,7.33
2023-04-02T05:16:01.117Z,7.31
2023-04-02T05:16:59.495Z,7.41
2023-04-02T05:17:59.594Z,7.44
2023-04-02T05:18:59.543Z,7.40
2023-04-02T05:19:59.572Z,7.36
2023-04-02T05:20:59.599Z,7.41
2023-04-02T05:21:59.619Z,7.31
2023-04-02T05:22:59.646Z,7.39
2023-04-02T05:23:59.671Z,7.29
2023-04-02T05:24:59.695Z,7.27
2023-04-02T05:25:59.716Z,7.37
2023-04-02T05:26:59.741Z,7.31
2023-04-02T05:27:59.765Z,7.33
2023-04-02T05:28:59.798Z,7.27
2023-04-02T05:29:59.819Z,7.33
2023-04-02T05:30:59.867Z,7.31
2023-04-02T05:31:59.865Z,7.27
2023-04-02T05:32:59.943Z,7.40
2023-04-02T05:33:59.940Z,7.47
2023-04-02T05:34:59.937Z,7.27
2023-04-02T05:35:59.987Z,7.31
2023-04-02T05:36:59.985Z,7.22
2023-04-02T05:38:00.018Z,7.22
2023-04-02T05:39:00.091Z,7.26
2023-04-02T05:40:00.113Z,7.23
2023-04-02T05:41:00.122Z,7.26
2023-04-02T05:42:00.136Z,7.33
2023-04-02T05:43:00.175Z,7.22
2023-04-02T05:44:00.159Z,7.23
2023-04-02T05:45:00.181Z,7.26
2023-04-02T05:46:00.209Z,7.23
2023-04-02T05:47:00.273Z,7.19
2023-04-02T05:48:00.330Z,7.30
2023-04-02T05:49:00.304Z,7.34
2023-04-02T05:50:00.344Z,7.47
2023-04-02T05:51:00.340Z,7.29
2023-04-02T05:52:00.379Z,7.26
2023-04-02T05:53:00.401Z,7.22
2023-04-02T05:54:00.413Z,7.27
2023-04-02T05:55:00.426Z,7.34
2023-04-02T05:56:00.460Z,7.40
2023-04-02T05:57:00.501Z,7.27
2023-04-02T05:58:29.309Z,7.23
2023-04-02T05:59:00.549Z,7.27
2023-04-02T06:00:00.556Z,7.23
2023-04-02T06:01:00.576Z,7.26
2023-04-02T06:02:00.625Z,7.27
2023-04-02T06:03:00.657Z,7.19
2023-04-02T06:04:00.705Z,7.26
2023-04-02T06:05:00.676Z,7.23
2023-04-02T06:06:00.733Z,7.26
2023-04-02T06:07:00.723Z,7.27
2023-04-02T06:08:00.754Z,7.31
2023-04-02T06:09:00.769Z,7.18
2023-04-02T06:10:00.801Z,7.19
2023-04-02T06:11:00.822Z,7.23
2023-04-02T06:12:00.846Z,7.16
2023-04-02T06:13:00.864Z,7.22
2023-04-02T06:14:00.899Z,7.19
2023-04-02T06:15:00.928Z,7.22
2023-04-02T06:16:00.941Z,7.22
2023-04-02T06:17:00.995Z,7.19
2023-04-02T06:18:01.041Z,7.18
2023-04-02T06:19:01.021Z,7.19
2023-04-02T06:20:01.055Z,7.16
2023-04-02T06:21:01.060Z,7.22
2023-04-02T06:22:01.102Z,7.26
2023-04-02T06:23:01.106Z,7.19
2023-04-02T06:24:01.154Z,7.16
2023-04-02T06:25:01.157Z,7.13
2023-04-02T06:26:01.196Z,7.12
2023-04-02T06:27:01.208Z,7.22
2023-04-02T06:28:01.229Z,7.18
2023-04-02T06:29:01.257Z,7.19
2023-04-02T06:30:01.291Z,7.22
2023-04-02T06:31:01.331Z,7.19
2023-04-02T06:32:01.329Z,7.15
2023-04-02T06:33:01.403Z,7.15
2023-04-02T06:34:01.384Z,7.09
2023-04-02T06:35:01.405Z,7.12
2023-04-02T06:36:01.488Z,7.15
2023-04-02T06:37:01.452Z,7.18
2023-04-02T06:38:01.504Z,7.21
2023-04-02T06:39:01.500Z,7.21
2023-04-02T06:40:01.577Z,7.15
2023-04-02T06:41:01.548Z,7.08
2023-04-02T06:42:01.577Z,7.12
2023-04-02T06:43:01.602Z,7.13
2023-04-02T06:44:01.627Z,7.22
2023-04-02T06:45:01.692Z,7.19
2023-04-02T06:46:01.711Z,7.18
2023-04-02T06:47:01.701Z,7.16
2023-04-02T06:48:01.754Z,7.22
2023-04-02T06:49:01.786Z,7.21
2023-04-02T06:50:01.801Z,7.18
2023-04-02T06:51:01.804Z,7.27
2023-04-02T06:52:01.842Z,7.22
2023-04-02T06:53:01.854Z,7.31
2023-04-02T06:54:01.895Z,7.16
2023-04-02T06:55:01.909Z,7.09
2023-04-02T06:56:01.928Z,7.13
2023-04-02T06:57:02.018Z,7.09
2023-04-02T06:58:01.976Z,7.11
2023-04-02T06:59:01.991Z,7.09
2023-04-02T07:00:02.015Z,7.09
2023-04-02T07:01:02.039Z,7.12
2023-04-02T07:02:02.078Z,7.13
2023-04-02T07:03:02.138Z,7.08
2023-04-02T07:04:02.113Z,7.12
2023-04-02T07:05:02.184Z,7.12
2023-04-02T07:06:02.164Z,7.12
2023-04-02T07:07:02.184Z,6.98
2023-04-02T07:08:02.211Z,7.08
2023-04-02T07:09:02.233Z,7.03
2023-04-02T07:10:02.285Z,7.08
2023-04-02T07:11:02.280Z,7.08
2023-04-02T07:12:02.308Z,7.00
2023-04-02T07:13:02.336Z,7.05
2023-04-02T07:14:02.356Z,7.01
2023-04-02T07:15:02.389Z,6.95
2023-04-02T07:16:02.502Z,7.05
2023-04-02T07:17:02.424Z,7.04
2023-04-02T07:18:02.469Z,7.04
2023-04-02T07:19:02.484Z,6.91
2023-04-02T07:20:02.500Z,7.03
2023-04-02T07:21:02.522Z,7.00
2023-04-02T07:22:02.565Z,6.95
2023-04-02T07:23:02.569Z,7.00
2023-04-02T07:24:02.623Z,7.03
2023-04-02T07:25:02.619Z,6.97
2023-04-02T07:26:02.667Z,6.97
2023-04-02T07:27:02.687Z,6.97
2023-04-02T07:28:02.697Z,6.88
2023-04-02T07:29:02.720Z,6.98
2023-04-02T07:30:02.743Z,6.79
2023-04-02T07:31:02.817Z,6.97
2023-04-02T07:32:02.792Z,7.01
2023-04-02T07:33:02.827Z,7.08
2023-04-02T07:34:02.843Z,7.01
2023-04-02T07:35:02.867Z,6.97
2023-04-02T07:36:03.085Z,6.95
2023-04-02T07:37:02.914Z,6.97
2023-04-02T07:38:02.937Z,6.91
2023-04-02T07:39:02.961Z,6.94
2023-04-02T07:40:02.991Z,6.91
2023-04-02T07:41:03.065Z,6.93
2023-04-02T07:42:03.068Z,6.94
2023-04-02T07:43:03.058Z,6.88
2023-04-02T07:44:03.084Z,6.83
2023-04-02T07:45:05.350Z,6.93
2023-04-02T07:46:03.133Z,6.95
2023-04-02T07:47:03.200Z,6.93
2023-04-02T07:48:03.256Z,6.90
2023-04-02T07:49:03.205Z,6.83
2023-04-02T07:50:03.232Z,6.86
2023-04-02T07:51:03.253Z,6.85
2023-04-02T07:52:03.279Z,6.82
2023-04-02T07:53:03.303Z,6.83
2023-04-02T07:54:03.348Z,6.90
2023-04-02T07:55:03.358Z,6.95
2023-04-02T07:56:03.392Z,6.93
2023-04-02T07:57:03.438Z,6.97
2023-04-02T07:58:03.444Z,6.95
2023-04-02T07:59:03.450Z,6.91
2023-04-02T08:00:03.472Z,6.94
2023-04-02T08:01:03.501Z,6.80
2023-04-02T08:02:03.594Z,6.73
2023-04-02T08:03:03.765Z,6.78
2023-04-02T08:04:03.621Z,6.86
2023-04-02T08:05:03.593Z,6.95
2023-04-02T08:06:03.622Z,6.98
2023-04-02T08:07:03.650Z,7.09
2023-04-02T08:08:03.741Z,7.00
2023-04-02T08:09:03.708Z,7.05
2023-04-02T08:10:03.715Z,7.08
2023-04-02T08:11:03.746Z,6.97
2023-04-02T08:12:03.765Z,7.00
2023-04-02T08:13:03.812Z,7.08
2023-04-02T08:14:03.851Z,7.03
2023-04-02T08:15:03.859Z,7.00
2023-04-02T08:16:03.864Z,7.05
2023-04-02T08:17:03.980Z,7.05
2023-04-02T08:18:03.945Z,7.08
2023-04-02T08:19:03.943Z,7.03
2023-04-02T08:20:03.960Z,7.09
2023-04-02T08:21:03.999Z,7.08
2023-04-02T08:22:04.015Z,7.16
2023-04-02T08:23:04.060Z,7.09
2023-04-02T08:24:04.061Z,7.05
2023-04-02T08:25:04.086Z,7.05
2023-04-02T08:26:04.109Z,7.12
2023-04-02T08:27:04.138Z,7.11
2023-04-02T08:28:04.158Z,7.18
2023-04-02T08:29:04.189Z,7.12
2023-04-02T08:30:04.236Z,7.13
2023-04-02T08:31:04.263Z,7.09
2023-04-02T08:32:04.259Z,7.09
2023-04-02T08:33:04.326Z,7.12
2023-04-02T08:34:04.311Z,7.11
2023-04-02T08:35:04.370Z,7.12
2023-04-02T08:36:04.392Z,7.00
2023-04-02T08:37:04.382Z,7.05
2023-04-02T08:38:04.404Z,6.98
2023-04-02T08:39:04.439Z,7.15
2023-04-02T08:40:04.456Z,7.15
2023-04-02T08:41:04.490Z,7.11
2023-04-02T08:42:04.529Z,7.22
2023-04-02T08:43:04.534Z,7.21
2023-04-02T08:44:04.553Z,7.26
2023-04-02T08:45:13.695Z,7.16
2023-04-02T08:46:04.656Z,7.19
2023-04-02T08:47:04.639Z,7.22
2023-04-02T08:48:04.699Z,7.22
2023-04-02T08:49:04.680Z,7.21
2023-04-02T08:50:04.730Z,7.23
2023-04-02T08:51:04.743Z,7.33
2023-04-02T08:52:04.769Z,7.33
2023-04-02T08:53:04.791Z,7.34
2023-04-02T08:54:04.802Z,7.33
2023-04-02T08:55:04.907Z,7.34
2023-04-02T08:56:04.847Z,7.31
2023-04-02T08:57:04.921Z,7.37
2023-04-02T08:58:04.898Z,7.40
2023-04-02T08:59:04.928Z,7.48
2023-04-02T09:00:04.967Z,7.49
2023-04-02T09:01:04.971Z,7.49
2023-04-02T09:02:05.078Z,7.49
2023-04-02T09:03:05.094Z,7.48
2023-04-02T09:04:05.044Z,7.48
2023-04-02T09:05:05.218Z,7.49
2023-04-02T09:06:05.094Z,7.49
2023-04-02T09:07:05.121Z,7.49
2023-04-02T09:08:05.152Z,7.48
2023-04-02T09:09:05.179Z,7.45
2023-04-02T09:10:05.194Z,7.36
2023-04-02T09:11:05.241Z,7.40
2023-04-02T09:12:05.272Z,7.52
2023-04-02T09:13:05.305Z,7.58
2023-04-02T09:14:05.296Z,7.68
2023-04-02T09:15:05.322Z,7.58
2023-04-02T09:16:05.481Z,7.55
2023-04-02T09:17:05.370Z,7.47
2023-04-02T09:18:05.470Z,7.49
2023-04-02T09:19:05.443Z,7.47
2023-04-02T09:20:05.445Z,7.48
2023-04-02T09:21:05.477Z,7.49
2023-04-02T09:22:05.502Z,7.52
2023-04-02T09:23:05.534Z,7.47
2023-04-02T09:24:05.543Z,7.55
2023-04-02T09:25:05.571Z,7.54
2023-04-02T09:26:05.595Z,7.45
2023-04-02T09:27:05.628Z,7.56
2023-04-02T09:28:05.650Z,7.48
2023-04-02T09:29:05.671Z,7.64
2023-04-02T09:30:05.700Z,7.52
2023-04-02T09:31:07.173Z,7.59
2023-04-02T09:32:05.744Z,7.55
2023-04-02T09:33:05.805Z,7.56
2023-04-02T09:34:05.821Z,7.67
2023-04-02T09:35:14.991Z,7.71
2023-04-02T09:36:05.885Z,7.58
2023-04-02T09:37:05.876Z,7.61
2023-04-02T09:38:05.899Z,7.63
2023-04-02T09:39:05.928Z,7.51
2023-04-02T09:40:05.983Z,7.58
2023-04-02T09:41:05.976Z,7.51
2023-04-02T09:42:06.134Z,7.61
2023-04-02T09:43:06.026Z,7.67
2023-04-02T09:44:06.048Z,7.73
2023-04-02T09:45:06.097Z,7.70
2023-04-02T09:46:06.096Z,7.61
2023-04-02T09:47:06.215Z,7.71
2023-04-02T09:48:06.199Z,7.64
2023-04-02T09:49:06.173Z,7.67
2023-04-02T09:50:06.217Z,7.74
2023-04-02T09:51:06.227Z,7.74
2023-04-02T09:52:06.255Z,7.64
2023-04-02T09:53:06.277Z,7.63
2023-04-02T09:54:06.347Z,7.63
2023-04-02T09:55:06.353Z,7.64
2023-04-02T09:56:06.355Z,7.75
2023-04-02T09:57:06.432Z,7.78
2023-04-02T09:58:06.451Z,7.86
2023-04-02T09:59:06.439Z,7.91
2023-04-02T10:00:08.794Z,7.89
2023-04-02T10:01:06.523Z,7.78
2023-04-02T10:02:06.497Z,7.78
2023-04-02T10:03:06.533Z,7.71
2023-04-02T10:04:06.679Z,7.63
2023-04-02T10:05:06.573Z,7.73
2023-04-02T10:06:06.618Z,7.73
2023-04-02T10:07:06.624Z,7.77
2023-04-02T10:08:06.647Z,7.78
2023-04-02T10:09:06.774Z,7.83
2023-04-02T10:10:06.702Z,7.82
2023-04-02T10:11:06.726Z,7.82
2023-04-02T10:12:06.747Z,7.82
2023-04-02T10:13:06.779Z,7.91
2023-04-02T10:14:06.802Z,7.88
2023-04-02T10:15:06.828Z,7.78
2023-04-02T10:16:06.962Z,7.64
2023-04-02T10:17:06.911Z,7.75
2023-04-02T10:18:06.949Z,7.73
2023-04-02T10:19:06.927Z,7.80
2023-04-02T10:20:06.945Z,7.74
2023-04-02T10:21:06.993Z,7.78
2023-04-02T10:22:07.021Z,7.75
2023-04-02T10:23:07.028Z,7.63
2023-04-02T10:24:07.048Z,7.74
2023-04-02T10:25:07.074Z,7.80
2023-04-02T10:26:07.104Z,7.86
2023-04-02T10:27:07.131Z,7.82
2023-04-02T10:28:07.152Z,7.77
2023-04-02T10:29:07.289Z,7.89
2023-04-02T10:30:07.200Z,7.99
2023-04-02T10:31:07.342Z,7.96
2023-04-02T10:32:07.269Z,8.11
2023-04-02T10:33:07.379Z,8.06
2023-04-02T10:34:07.301Z,8.01
2023-04-02T10:35:07.342Z,8.11
2023-04-02T10:36:07.403Z,8.13
2023-04-02T10:37:07.379Z,8.26
2023-04-02T10:38:07.428Z,8.42
2023-04-02T10:39:07.435Z,8.44
2023-04-02T10:40:07.472Z,8.50
2023-04-02T10:41:07.481Z,8.71
2023-04-02T10:42:07.507Z,8.64
2023-04-02T10:43:07.542Z,8.52
2023-04-02T10:44:19.027Z,8.44
2023-04-02T10:45:07.584Z,8.64
2023-04-02T10:46:07.634Z,8.62
2023-04-02T10:47:07.641Z,8.68
2023-04-02T10:48:07.710Z,8.60
2023-04-02T10:49:07.758Z,8.72
2023-04-02T10:50:07.711Z,8.64
2023-04-02T10:51:07.736Z,8.54
2023-04-02T10:52:07.759Z,8.61
2023-04-02T10:53:07.799Z,8.69
2023-04-02T10:54:07.841Z,8.67
2023-04-02T10:55:07.838Z,8.72
2023-04-02T10:56:07.862Z,8.80
2023-04-02T10:57:07.957Z,8.82
2023-04-02T10:58:07.923Z,8.82
2023-04-02T10:59:07.942Z,8.86
2023-04-02T11:00:07.978Z,8.80
2023-04-02T11:01:08.069Z,8.85
2023-04-02T11:02:08.025Z,8.97
2023-04-02T11:03:08.195Z,9.04
2023-04-02T11:04:08.068Z,8.98
2023-04-02T11:05:08.093Z,9.01
2023-04-02T11:06:08.118Z,8.94
2023-04-02T11:07:14.634Z,8.83
2023-04-02T11:08:08.172Z,8.69
2023-04-02T11:09:08.202Z,8.83
2023-04-02T11:10:08.241Z,8.79
2023-04-02T11:11:08.266Z,8.79
2023-04-02T11:12:08.273Z,8.74
2023-04-02T11:13:08.304Z,8.80
2023-04-02T11:14:08.345Z,8.77
2023-04-02T11:15:08.355Z,8.64
2023-04-02T11:16:08.410Z,8.62
2023-04-02T11:17:08.404Z,8.76
2023-04-02T11:18:08.426Z,8.65
2023-04-02T11:19:08.460Z,8.62
2023-04-02T11:20:08.477Z,8.62
2023-04-02T11:21:08.502Z,8.79
2023-04-02T11:22:08.533Z,8.79
2023-04-02T11:23:08.566Z,8.92
2023-04-02T11:24:08.582Z,8.94
2023-04-02T11:25:08.607Z,9.05
2023-04-02T11:26:08.652Z,8.80
2023-04-02T11:27:08.669Z,8.82
2023-04-02T11:28:08.685Z,8.95
2023-04-02T11:29:08.769Z,8.89
2023-04-02T11:30:08.738Z,8.98
2023-04-02T11:31:08.791Z,9.04
2023-04-02T11:32:08.792Z,9.05
2023-04-02T11:33:08.900Z,9.19
2023-04-02T11:34:08.839Z,8.98
2023-04-02T11:35:08.867Z,8.69
2023-04-02T11:36:08.935Z,8.82
2023-04-02T11:37:08.918Z,8.86
2023-04-02T11:38:08.945Z,8.94
2023-04-02T11:39:16.938Z,9.08
2023-04-02T11:40:08.997Z,9.11
2023-04-02T11:41:09.028Z,9.20
2023-04-02T11:42:09.071Z,9.05
2023-04-02T11:43:09.077Z,9.16
2023-04-02T11:44:09.100Z,9.27
2023-04-02T11:45:09.127Z,9.21
2023-04-02T11:46:09.172Z,9.24
2023-04-02T11:47:09.181Z,9.38
2023-04-02T11:48:09.208Z,9.47
2023-04-02T11:49:09.233Z,9.59
2023-04-02T11:50:09.367Z,9.50
2023-04-02T11:51:09.285Z,9.34
2023-04-02T11:52:12.129Z,9.32
2023-04-02T11:53:09.338Z,9.41
2023-04-02T11:54:09.360Z,9.35
2023-04-02T11:55:09.387Z,9.41
2023-04-02T11:56:09.414Z,9.45
2023-04-02T11:57:09.534Z,9.60
2023-04-02T11:58:09.487Z,9.45
2023-04-02T11:59:09.493Z,9.59
2023-04-02T12:00:09.698Z,9.55
2023-04-02T12:01:09.545Z,9.37
2023-04-02T12:02:09.611Z,9.39
2023-04-02T12:03:09.646Z,9.32
2023-04-02T12:04:09.620Z,9.44
2023-04-02T12:05:09.665Z,9.45
2023-04-02T12:06:09.674Z,9.41
2023-04-02T12:07:09.701Z,9.41
2023-04-02T12:08:09.728Z,9.45
2023-04-02T12:09:09.773Z,9.44
2023-04-02T12:10:09.778Z,9.50
2023-04-02T12:11:09.803Z,9.60
2023-04-02T12:12:09.830Z,9.59
2023-04-02T12:13:09.859Z,9.77
2023-04-02T12:14:09.903Z,9.63
2023-04-02T12:15:10.121Z,9.82
2023-04-02T12:16:09.936Z,9.85
2023-04-02T12:17:10.143Z,9.60
2023-04-02T12:18:10.043Z,9.29
2023-04-02T12:19:10.019Z,9.34
2023-04-02T12:20:10.268Z,9.37
2023-04-02T12:21:10.067Z,9.45
2023-04-02T12:22:10.295Z,9.05
2023-04-02T12:23:10.120Z,9.14
2023-04-02T12:24:10.148Z,9.11
2023-04-02T12:25:10.172Z,9.05
2023-04-02T12:26:10.200Z,9.26
2023-04-02T12:27:10.226Z,9.29
2023-04-02T12:28:10.290Z,9.37
2023-04-02T12:29:10.284Z,9.42
2023-04-02T12:30:10.332Z,9.29
2023-04-02T12:31:10.357Z,9.23
2023-04-02T12:32:10.357Z,9.30
2023-04-02T12:33:10.419Z,9.19
2023-04-02T12:34:10.413Z,9.26
2023-04-02T12:35:10.441Z,9.39
2023-04-02T12:36:10.494Z,9.42
2023-04-02T12:37:10.488Z,9.52
2023-04-02T12:38:10.517Z,9.44
2023-04-02T12:39:10.542Z,9.41
2023-04-02T12:40:10.583Z,9.19
2023-04-02T12:41:10.595Z,8.98
2023-04-02T12:42:10.623Z,9.01
2023-04-02T12:43:10.648Z,8.97
2023-04-02T12:44:10.674Z,9.05
2023-04-02T12:45:10.702Z,8.95
2023-04-02T12:46:10.771Z,9.03
2023-04-02T12:47:10.763Z,8.97
2023-04-02T12:48:10.808Z,8.94
2023-04-02T12:49:10.806Z,8.95
2023-04-02T12:50:10.833Z,9.03
2023-04-02T12:51:10.858Z,9.16
2023-04-02T12:52:10.894Z,9.01
2023-04-02T12:53:10.911Z,8.94
2023-04-02T12:54:10.950Z,9.08
2023-04-02T12:55:10.962Z,9.05
2023-04-02T12:56:10.988Z,9.04
2023-04-02T12:57:11.045Z,9.21
2023-04-02T12:58:11.042Z,9.45
2023-04-02T12:59:11.068Z,9.57
2023-04-02T13:00:11.091Z,9.64
2023-04-02T13:01:11.220Z,9.64
2023-04-02T13:02:11.165Z,9.62
2023-04-02T13:03:11.274Z,9.67
2023-04-02T13:04:11.246Z,9.75
2023-04-02T13:05:11.225Z,9.62
2023-04-02T13:06:11.249Z,9.63
2023-04-02T13:07:11.280Z,9.59
2023-04-02T13:08:11.308Z,9.56
2023-04-02T13:09:11.335Z,9.47
2023-04-02T13:10:11.366Z,9.56
2023-04-02T13:11:11.381Z,9.57
2023-04-02T13:12:11.408Z,9.62
2023-04-02T13:13:11.434Z,9.63
2023-04-02T13:14:11.459Z,9.75
2023-04-02T13:15:11.497Z,9.75
2023-04-02T13:16:11.537Z,9.82